Time;durP1;ratioP1;P1;durP2;ratioP2;P2;SDS_P1;SDS_P2;PMS_P1;PMS_P2;Temp;Humidity;BMP_temperature;BMP_pressure;BME280_temperature;BME280_humidity;BME280_pressure;Samples;Min_cycle;Max_cycle;Signal;HPM_P1;HPM_P2
2022/09/12 00:01:07;;;;;;;4.80;3.10;;;;;;;8.46;84.66;99219.16;447338;1271;142193;-59
2022/09/12 00:11:13;;;;;;;4.60;3.60;;;;;;;8.33;85.12;99223.48;446873;1271;143358;-58
2022/09/12 00:21:20;;;;;;;4.30;3.90;;;;;;;8.24;85.51;99223.13;447426;1271;141932;-58
2022/09/12 00:31:27;;;;;;;3.90;3.50;;;;;;;8.11;85.56;99223.88;447033;1273;142572;-58
2022/09/12 00:41:35;;;;;;;6.90;3.50;;;;;;;8.07;86.01;99226.91;446323;1273;143907;-59
2022/09/12 00:51:46;;;;;;;3.20;2.90;;;;;;;8.04;85.93;99227.42;447141;1273;142866;-58
2022/09/12 01:01:53;;;;;;;3.60;3.30;;;;;;;7.97;86.21;99228.19;447064;1273;142491;-58
2022/09/12 01:12:01;;;;;;;4.00;3.50;;;;;;;7.90;86.36;99227.02;447454;1271;145145;-58
2022/09/12 01:22:20;;;;;;;6.90;3.40;;;;;;;7.77;86.41;99226.74;446448;1271;1441966;-58
2022/09/12 01:32:37;;;;;;;3.40;3.10;;;;;;;7.68;86.89;99228.45;446676;1271;142009;-59
2022/09/12 01:42:51;;;;;;;7.70;4.80;;;;;;;7.57;87.15;99224.21;447143;1273;141711;-59
2022/09/12 01:53:00;;;;;;;5.10;3.30;;;;;;;7.54;87.48;99231.52;446329;1273;153045;-57
2022/09/12 02:03:12;;;;;;;4.20;3.90;;;;;;;7.54;87.92;99236.21;447608;1271;143102;-57
2022/09/12 02:13:23;;;;;;;5.40;4.10;;;;;;;7.46;88.08;99240.50;447644;1271;141847;-58
2022/09/12 02:23:31;;;;;;;4.50;4.00;;;;;;;7.41;88.41;99234.87;446305;1273;142601;-58
2022/09/12 02:33:43;;;;;;;4.50;3.80;;;;;;;7.33;88.65;99235.98;447287;1271;141952;-57
2022/09/12 02:43:50;;;;;;;5.00;4.00;;;;;;;7.26;89.06;99235.15;447002;1273;187387;-58
2022/09/12 02:53:56;;;;;;;5.20;4.40;;;;;;;7.26;89.48;99239.67;447218;1271;142728;-58
2022/09/12 03:04:21;;;;;;;5.40;3.80;;;;;;;7.44;89.82;99244.45;447413;1271;195382;-58
2022/09/12 03:14:45;;;;;;;4.20;3.80;;;;;;;7.42;89.75;99250.48;443339;1269;142048;-58
2022/09/12 03:25:01;;;;;;;5.60;3.30;;;;;;;7.33;89.65;99254.50;447223;1272;142255;-59
2022/09/12 03:35:08;;;;;;;4.30;4.00;;;;;;;7.27;90.16;99261.22;446866;1271;142602;-58
2022/09/12 03:45:15;;;;;;;5.70;4.30;;;;;;;7.26;90.35;99271.02;447616;1271;142023;-58
2022/09/12 03:55:21;;;;;;;7.90;4.50;;;;;;;7.28;90.70;99279.63;447670;1271;143588;-59
2022/09/12 04:05:27;;;;;;;6.30;5.40;;;;;;;7.46;91.25;99288.91;446878;1270;143773;-58
2022/09/12 04:15:32;;;;;;;6.80;5.50;;;;;;;7.68;91.20;99287.66;447662;1271;187167;-58
2022/09/12 04:25:38;;;;;;;6.50;5.70;;;;;;;7.88;91.12;99291.41;447073;1271;143641;-58
2022/09/12 04:35:44;;;;;;;7.50;5.70;;;;;;;8.02;90.96;99300.90;446291;1272;144014;-58
2022/09/12 04:45:50;;;;;;;9.30;5.00;;;;;;;8.16;91.01;99305.01;447615;1270;142299;-59
2022/09/12 04:56:01;;;;;;;8.60;5.00;;;;;;;8.39;90.84;99312.92;446552;1271;143920;-59
2022/09/12 05:06:09;;;;;;;6.10;4.50;;;;;;;8.65;90.57;99314.54;447049;1273;142304;-58
2022/09/12 05:16:17;;;;;;;4.60;4.20;;;;;;;8.94;90.14;99318.17;447267;1271;142215;-59
2022/09/12 05:26:24;;;;;;;8.70;4.80;;;;;;;9.55;89.61;99325.71;446512;1271;142424;-59
2022/09/12 05:36:30;;;;;;;3.80;3.20;;;;;;;11.03;87.49;99327.52;447048;1271;142152;-59
2022/09/12 05:46:40;;;;;;;3.90;3.50;;;;;;;13.13;85.11;99324.14;446863;1273;142662;-59
2022/09/12 05:56:47;;;;;;;4.70;2.70;;;;;;;15.91;79.82;99323.94;446172;1273;143461;-59
2022/09/12 06:06:52;;;;;;;4.30;2.90;;;;;;;17.07;75.28;99328.60;446973;1271;142490;-59
2022/09/12 06:16:58;;;;;;;3.10;2.40;;;;;;;18.35;71.76;99329.11;445852;1272;144049;-59
2022/09/12 06:27:04;;;;;;;3.60;2.60;;;;;;;20.28;68.70;99328.73;446890;1273;141960;-59
2022/09/12 06:37:10;;;;;;;3.90;3.10;;;;;;;23.08;62.56;99319.84;447264;1271;141692;-60
2022/09/12 06:47:15;;;;;;;4.60;2.00;;;;;;;25.64;58.07;99323.42;446775;1270;161891;-57
2022/09/12 06:57:21;;;;;;;5.10;2.30;;;;;;;27.13;51.25;99322.42;444071;1271;142219;-59
2022/09/12 07:07:27;;;;;;;3.10;2.30;;;;;;;25.87;50.98;99327.48;438868;1271;141692;-56
2022/09/12 07:17:32;;;;;;;4.40;1.80;;;;;;;28.33;48.19;99330.17;446119;1270;142017;-58
2022/09/12 07:27:38;;;;;;;3.20;2.10;;;;;;;27.66;45.63;99335.02;445409;1271;141645;-57
2022/09/12 07:37:44;;;;;;;4.40;2.20;;;;;;;28.12;44.57;99341.37;434828;1271;140630;-59
2022/09/12 07:47:52;;;;;;;2.60;1.50;;;;;;;30.55;41.33;99349.30;446768;1271;141568;-59
2022/09/12 07:57:58;;;;;;;8.90;1.30;;;;;;;33.03;38.12;99352.10;447450;1271;142047;-60
2022/09/12 08:08:04;;;;;;;11.50;1.90;;;;;;;33.07;35.97;99347.42;446894;1271;140889;-59
2022/09/12 08:18:10;;;;;;;2.80;1.70;;;;;;;30.73;35.86;99345.45;447560;1271;142789;-59
2022/09/12 08:28:15;;;;;;;5.70;0.90;;;;;;;28.52;34.77;99345.00;447341;1272;141537;-59
2022/09/12 08:38:22;;;;;;;1.70;1.30;;;;;;;27.36;35.64;99340.41;446664;1272;141419;-59
2022/09/12 08:48:28;;;;;;;1.00;0.90;;;;;;;24.08;38.10;99350.09;447391;1272;141780;-58
2022/09/12 08:58:39;;;;;;;2.30;1.10;;;;;;;21.11;40.52;99355.23;447614;1271;142631;-58
2022/09/12 09:09:02;;;;;;;5.30;1.70;;;;;;;20.06;42.80;99361.00;446931;1271;142775;-58
2022/09/12 09:19:16;;;;;;;1.70;1.40;;;;;;;19.89;43.37;99362.48;447521;1271;142496;-58
2022/09/12 09:29:24;;;;;;;3.40;1.00;;;;;;;19.54;44.14;99362.98;446742;1271;141480;-58
2022/09/12 09:39:45;;;;;;;2.10;0.80;;;;;;;19.00;44.78;99365.88;447528;1271;186301;-59
2022/09/12 09:49:51;;;;;;;2.80;1.10;;;;;;;18.59;44.83;99367.65;447508;1271;142098;-58
2022/09/12 09:59:57;;;;;;;1.70;1.10;;;;;;;18.08;45.70;99360.69;447597;1271;143118;-59
2022/09/12 10:10:15;;;;;;;4.00;1.20;;;;;;;17.92;45.98;99364.57;447570;1271;141625;-58
2022/09/12 10:20:37;;;;;;;2.70;1.20;;;;;;;17.87;46.05;99367.12;446778;1271;141793;-58
2022/09/12 10:30:53;;;;;;;1.50;1.20;;;;;;;17.54;46.90;99370.30;447654;1271;142102;-58
2022/09/12 10:41:01;;;;;;;3.40;1.00;;;;;;;17.56;47.13;99376.55;446703;1272;142470;-59
2022/09/12 10:51:14;;;;;;;1.00;0.90;;;;;;;18.17;46.92;99377.58;447697;1271;141693;-59
2022/09/12 11:01:36;;;;;;;2.50;0.90;;;;;;;18.32;45.84;99373.97;447633;1271;144640;-59
2022/09/12 11:11:53;;;;;;;9.80;2.10;;;;;;;18.09;46.01;99381.83;446925;1271;143255;-59
2022/09/12 11:22:18;;;;;;;0.80;0.60;;;;;;;18.51;45.58;99382.63;447654;1271;141401;-58
2022/09/12 11:32:54;;;;;;;2.00;0.80;;;;;;;18.44;45.56;99386.06;446566;1271;144652;-59
2022/09/12 11:43:05;;;;;;;5.10;0.80;;;;;;;17.65;46.28;99387.27;447580;1271;143018;-58
2022/09/12 11:53:19;;;;;;;2.00;1.10;;;;;;;17.84;46.50;99380.34;446972;1271;141769;-58
2022/09/12 12:03:32;;;;;;;6.40;1.50;;;;;;;18.07;46.03;99381.98;447705;1271;144463;-58
2022/09/12 12:13:44;;;;;;;1.50;0.60;;;;;;;18.08;45.83;99378.63;447680;1271;142029;-59
2022/09/12 12:24:12;;;;;;;1.20;0.50;;;;;;;17.79;46.65;99384.27;446910;1271;141546;-60
2022/09/12 12:34:29;;;;;;;1.90;0.70;;;;;;;17.91;46.33;99385.91;447710;1271;141773;-60
2022/09/12 12:44:51;;;;;;;1.60;0.90;;;;;;;17.59;46.03;99392.17;446946;1270;143126;-60
2022/09/12 12:55:00;;;;;;;1.40;0.90;;;;;;;17.50;46.25;99385.44;447694;1269;141983;-60
2022/09/12 13:05:17;;;;;;;2.40;0.80;;;;;;;18.02;46.32;99380.41;446906;1271;142015;-60
2022/09/12 13:15:50;;;;;;;1.00;0.90;;;;;;;18.25;45.46;99379.70;447496;1271;143330;-60
2022/09/12 13:25:57;;;;;;;6.80;1.50;;;;;;;18.25;45.67;99383.48;445265;1271;161132;-59
2022/09/12 13:36:27;;;;;;;1.30;0.70;;;;;;;17.84;46.11;99383.20;447492;1271;141629;-59
2022/09/12 13:46:34;;;;;;;3.80;1.10;;;;;;;17.77;45.75;99376.80;447301;1272;141754;-59
2022/09/12 13:56:49;;;;;;;1.60;0.70;;;;;;;17.66;46.27;99369.19;446671;1271;142935;-59
2022/09/12 14:06:55;;;;;;;1.00;0.80;;;;;;;17.48;46.22;99370.54;447569;1270;155210;-60
2022/09/12 14:17:14;;;;;;;2.90;0.60;;;;;;;17.35;46.52;99370.77;446375;1272;143234;-60
2022/09/12 14:27:24;;;;;;;2.40;0.80;;;;;;;17.45;46.25;99371.50;447355;1271;142505;-59
2022/09/12 14:37:30;;;;;;;1.30;0.70;;;;;;;17.55;46.35;99373.83;447271;1272;144069;-59
2022/09/12 14:47:40;;;;;;;1.70;0.80;;;;;;;17.52;46.06;99379.56;446479;1272;142120;-59
2022/09/12 14:57:46;;;;;;;5.00;1.40;;;;;;;17.51;46.14;99378.20;447289;1272;142184;-59
2022/09/12 15:08:01;;;;;;;3.20;1.10;;;;;;;17.23;46.55;99377.33;447261;1272;141657;-60
2022/09/12 15:18:07;;;;;;;0.70;0.60;;;;;;;17.00;46.82;99379.80;447261;1273;142029;-58
2022/09/12 15:28:18;;;;;;;0.60;0.60;;;;;;;16.86;47.29;99374.39;447254;1272;141665;-58
2022/09/12 15:38:24;;;;;;;1.50;0.90;;;;;;;18.37;45.97;99366.45;446595;1272;141588;-58
2022/09/12 15:48:31;;;;;;;1.70;1.20;;;;;;;17.17;46.43;99369.88;447340;1272;142752;-59
2022/09/12 15:58:37;;;;;;;1.30;0.90;;;;;;;16.51;47.47;99370.61;447321;1272;142128;-58
2022/09/12 16:08:59;;;;;;;1.30;0.90;;;;;;;16.16;48.31;99371.13;447286;1272;141451;-58
2022/09/12 16:19:05;;;;;;;2.00;0.80;;;;;;;15.87;49.10;99379.15;447513;1271;141897;-58
2022/09/12 16:29:13;;;;;;;3.40;1.40;;;;;;;15.60;49.75;99384.65;446626;1271;142726;-60
2022/09/12 16:39:19;;;;;;;5.00;1.60;;;;;;;15.28;50.51;99389.76;447413;1271;141584;-59
2022/09/12 16:49:25;;;;;;;4.90;0.80;;;;;;;14.95;51.15;99389.04;440423;1271;142989;-59
2022/09/12 16:59:30;;;;;;;3.80;1.30;;;;;;;14.54;52.18;99388.74;444179;1270;141822;-58
2022/09/12 17:09:36;;;;;;;4.30;0.70;;;;;;;14.05;53.94;99386.73;447129;1271;144095;-59
2022/09/12 17:19:42;;;;;;;5.50;1.50;;;;;;;13.51;56.24;99386.09;430820;1271;145080;-59
2022/09/12 17:29:48;;;;;;;4.10;1.30;;;;;;;12.98;58.16;99391.10;434092;1271;143362;-58
2022/09/12 17:39:54;;;;;;;3.60;1.20;;;;;;;12.46;59.95;99396.92;431214;1271;147679;-59
2022/09/12 17:50:00;;;;;;;3.60;1.70;;;;;;;11.93;61.50;99406.06;430620;1271;142272;-59
2022/09/12 18:02:11;;;;;;;4.50;2.30;;;;;;;11.45;62.94;99414.33;430388;1271;142517;-59
2022/09/12 18:10:52;;;;;;;8.10;1.70;;;;;;;11.08;64.08;99415.17;429553;1273;148469;-57
2022/09/12 18:20:58;;;;;;;8.80;3.10;;;;;;;10.72;64.98;99415.67;437618;1270;143374;-60
2022/09/12 18:31:09;;;;;;;5.20;2.80;;;;;;;10.39;66.14;99418.13;433775;1270;147476;-58
2022/09/12 18:41:17;;;;;;;3.60;2.50;;;;;;;10.14;67.05;99421.16;446464;1270;145166;-59
2022/09/12 18:51:25;;;;;;;4.90;2.90;;;;;;;9.96;67.75;99416.02;447362;1270;141610;-58
2022/09/12 19:01:32;;;;;;;10.20;6.20;;;;;;;9.74;68.22;99417.92;440145;1271;143080;-58
2022/09/12 19:11:47;;;;;;;9.10;5.80;;;;;;;9.54;68.89;99414.63;430409;1270;194733;-58
2022/09/12 19:21:53;;;;;;;15.80;10.80;;;;;;;9.30;69.77;99414.15;433709;1270;141846;-59
2022/09/12 19:31:58;;;;;;;13.50;8.30;;;;;;;9.14;70.50;99416.34;435957;1271;147485;-59
2022/09/12 19:42:04;;;;;;;11.90;10.10;;;;;;;8.93;70.94;99412.69;431269;1271;145385;-59
2022/09/12 19:52:10;;;;;;;16.00;10.30;;;;;;;8.75;71.80;99410.27;439457;1270;146638;-58
2022/09/12 20:02:24;;;;;;;13.60;8.80;;;;;;;8.61;72.50;99415.14;433145;1271;147705;-58
2022/09/12 20:12:30;;;;;;;17.40;11.40;;;;;;;8.45;72.88;99409.36;432797;1270;148764;-60
2022/09/12 20:22:36;;;;;;;21.60;11.40;;;;;;;8.32;73.51;99407.70;429960;1271;145887;-59
2022/09/12 20:32:44;;;;;;;15.90;12.20;;;;;;;8.19;73.99;99399.86;435493;1270;144276;-59
2022/09/12 20:42:50;;;;;;;13.20;11.30;;;;;;;8.06;74.35;99390.16;433661;1271;151094;-59
2022/09/12 20:52:56;;;;;;;15.60;11.20;;;;;;;7.95;74.90;99399.83;431417;1271;147167;-58
2022/09/12 21:03:03;;;;;;;16.80;11.70;;;;;;;7.81;75.33;99404.21;437216;1271;142749;-58
2022/09/12 21:13:10;;;;;;;15.50;12.80;;;;;;;7.67;75.70;99395.09;440724;1270;143305;-58
2022/09/12 21:23:15;;;;;;;18.90;13.30;;;;;;;7.56;75.74;99395.99;439000;1270;187133;-58
2022/09/12 21:33:22;;;;;;;19.20;11.80;;;;;;;7.49;76.30;99393.59;438403;1271;144040;-59
2022/09/12 21:43:28;;;;;;;13.60;11.50;;;;;;;7.43;76.57;99387.88;432009;1271;146523;-59
2022/09/12 21:53:34;;;;;;;16.40;12.10;;;;;;;7.30;76.74;99382.10;430182;1271;146848;-59
2022/09/12 22:03:41;;;;;;;19.10;13.30;;;;;;;7.20;77.38;99376.51;433940;1270;148461;-59
2022/09/12 22:13:46;;;;;;;17.40;14.70;;;;;;;7.11;77.68;99375.58;447491;1270;142940;-59
2022/09/12 22:34:16;;;;;;;22.00;15.70;;;;;;;6.97;77.64;99371.80;447210;1271;142504;-59
2022/09/12 22:44:22;;;;;;;27.60;18.40;;;;;;;6.92;77.75;99364.57;446788;1271;145323;-60
2022/09/12 22:54:28;;;;;;;24.60;17.00;;;;;;;6.86;78.05;99362.46;447131;1272;142529;-59
2022/09/12 23:04:34;;;;;;;31.30;18.50;;;;;;;6.82;78.44;99369.60;447365;1269;202263;-59
2022/09/12 23:14:40;;;;;;;26.20;17.70;;;;;;;6.96;78.87;99370.48;446820;1269;142659;-59
2022/09/12 23:24:45;;;;;;;28.00;17.00;;;;;;;7.15;78.87;99361.98;447532;1270;143859;-59
2022/09/12 23:34:51;;;;;;;28.40;18.80;;;;;;;7.25;78.47;99351.36;447524;1271;143198;-59
2022/09/12 23:44:57;;;;;;;31.30;17.40;;;;;;;7.20;78.50;99342.23;447429;1270;141930;-59
2022/09/12 23:55:03;;;;;;;30.70;17.70;;;;;;;7.09;78.84;99334.09;447440;1271;142912;-59
